Time;durP1;ratioP1;P1;durP2;ratioP2;P2;SDS_P1;SDS_P2;PMS_P1;PMS_P2;Temp;Humidity;BMP_temperature;BMP_pressure;BME280_temperature;BME280_humidity;BME280_pressure;Samples;Min_cycle;Max_cycle;Signal;HPM_P1;HPM_P2
2023/09/26 00:00:42;;;;;;;13.80;12.50;;;14.10;99.90;;;;;;4999558;28;20034;-46
2023/09/26 00:03:07;;;;;;;13.20;11.85;;;14.00;99.90;;;;;;4996452;28;20053;-44
2023/09/26 00:05:33;;;;;;;13.30;11.95;;;14.00;99.90;;;;;;4985946;28;20044;-43
2023/09/26 00:08:02;;;;;;;14.20;12.80;;;14.00;99.90;;;;;;5003540;28;20409;-44
2023/09/26 00:10:29;;;;;;;14.75;12.02;;;14.00;99.90;;;;;;4985136;28;20376;-44
2023/09/26 00:12:54;;;;;;;13.48;12.15;;;13.90;99.90;;;;;;5002432;28;20136;-44
2023/09/26 00:15:20;;;;;;;14.25;12.85;;;13.90;99.90;;;;;;4969125;28;20115;-44
2023/09/26 00:17:45;;;;;;;16.27;11.93;;;13.90;99.90;;;;;;4985631;28;20045;-44
2023/09/26 00:20:35;;;;;;;12.93;11.52;;;13.80;99.90;;;;;;4978890;28;20061;-45
2023/09/26 00:22:57;;;;;;;13.10;11.93;;;13.80;99.90;;;;;;5002825;28;20046;-43
2023/09/26 00:25:23;;;;;;;12.75;11.57;;;13.80;99.90;;;;;;4969051;28;20803;-45
2023/09/26 00:27:50;;;;;;;12.80;11.70;;;13.80;99.90;;;;;;4985407;28;20076;-44
2023/09/26 00:30:16;;;;;;;12.55;11.10;;;13.80;99.90;;;;;;4991079;28;20077;-44
2023/09/26 00:32:43;;;;;;;13.93;12.73;;;13.70;99.90;;;;;;5002585;28;20041;-44
2023/09/26 00:35:11;;;;;;;14.60;12.88;;;13.80;99.90;;;;;;4984807;28;20784;-45
2023/09/26 00:37:37;;;;;;;14.95;13.48;;;13.80;99.90;;;;;;4974939;28;20509;-44
2023/09/26 00:40:03;;;;;;;14.68;13.15;;;13.80;99.90;;;;;;4983113;28;20093;-43
2023/09/26 00:42:29;;;;;;;15.45;13.90;;;13.70;99.90;;;;;;4967954;28;20517;-44
2023/09/26 00:44:55;;;;;;;15.88;13.35;;;13.70;99.90;;;;;;4984366;28;20061;-44
2023/09/26 00:47:21;;;;;;;14.20;12.80;;;13.70;99.90;;;;;;5001067;28;20050;-43
2023/09/26 00:49:47;;;;;;;13.80;12.60;;;13.70;99.90;;;;;;4984327;28;20114;-44
2023/09/26 00:52:13;;;;;;;14.40;13.10;;;13.70;99.90;;;;;;4980754;28;20096;-43
2023/09/26 00:54:39;;;;;;;15.27;13.77;;;13.70;99.90;;;;;;5001426;28;20042;-43
2023/09/26 00:57:05;;;;;;;14.48;12.98;;;13.60;99.90;;;;;;4997086;28;20046;-43
2023/09/26 00:59:32;;;;;;;14.98;12.95;;;13.60;99.90;;;;;;4979957;28;20137;-44
2023/09/26 01:01:58;;;;;;;14.80;13.35;;;13.60;99.90;;;;;;4995569;28;20053;-44
2023/09/26 01:04:23;;;;;;;15.23;13.73;;;13.60;99.90;;;;;;5001159;28;20426;-43
2023/09/26 01:06:49;;;;;;;15.20;13.70;;;13.60;99.90;;;;;;4999520;28;20516;-44
2023/09/26 01:09:15;;;;;;;16.40;14.80;;;13.60;99.90;;;;;;5001559;28;20058;-43
2023/09/26 01:11:43;;;;;;;16.20;14.57;;;13.60;99.90;;;;;;5001694;28;20077;-43
2023/09/26 01:14:09;;;;;;;15.57;14.18;;;13.60;99.90;;;;;;5001592;28;20599;-44
2023/09/26 01:16:34;;;;;;;16.08;14.57;;;13.60;99.90;;;;;;4973821;28;20148;-45
2023/09/26 01:19:00;;;;;;;15.45;13.82;;;13.50;99.90;;;;;;4981056;28;20049;-45
2023/09/26 01:21:25;;;;;;;16.67;14.93;;;13.50;99.90;;;;;;4999399;28;20497;-46
2023/09/26 01:23:56;;;;;;;16.65;14.65;;;13.50;99.90;;;;;;5001284;28;20168;-46
2023/09/26 01:26:22;;;;;;;16.75;14.73;;;13.50;99.90;;;;;;4994141;28;20088;-44
2023/09/26 01:28:48;;;;;;;15.73;14.35;;;13.50;99.90;;;;;;4983643;28;20084;-45
2023/09/26 01:31:14;;;;;;;19.23;17.20;;;13.40;99.90;;;;;;4983766;28;20121;-44
2023/09/26 01:33:40;;;;;;;17.00;15.48;;;13.50;99.90;;;;;;5000679;28;20085;-44
2023/09/26 01:36:06;;;;;;;18.98;16.73;;;13.50;99.90;;;;;;4995763;28;20042;-44
2023/09/26 01:38:32;;;;;;;16.35;14.75;;;13.40;99.90;;;;;;5001600;28;20041;-44
2023/09/26 01:40:57;;;;;;;17.40;15.73;;;13.40;99.90;;;;;;4983290;28;20449;-44
2023/09/26 01:43:24;;;;;;;15.73;14.32;;;13.40;99.90;;;;;;5000042;28;20073;-44
2023/09/26 01:45:51;;;;;;;17.63;15.93;;;13.30;99.90;;;;;;4982988;28;20053;-44
2023/09/26 01:48:16;;;;;;;17.95;16.13;;;13.30;99.90;;;;;;4983795;28;20425;-44
2023/09/26 01:50:42;;;;;;;19.05;17.05;;;13.20;99.90;;;;;;5000873;28;20044;-45
2023/09/26 01:53:09;;;;;;;17.70;16.02;;;13.30;99.90;;;;;;5001216;28;20041;-45
2023/09/26 01:55:38;;;;;;;15.93;14.52;;;13.20;99.90;;;;;;4983114;28;20501;-43
2023/09/26 01:58:04;;;;;;;17.63;15.88;;;13.20;99.90;;;;;;4987842;28;20050;-45
2023/09/26 02:00:29;;;;;;;17.33;15.52;;;13.10;99.90;;;;;;4983090;28;20267;-45
2023/09/26 02:02:55;;;;;;;18.25;16.40;;;13.10;99.90;;;;;;4996470;28;20497;-46
2023/09/26 02:05:21;;;;;;;16.65;15.00;;;13.10;99.90;;;;;;4999395;28;20037;-45
2023/09/26 02:07:48;;;;;;;19.98;18.02;;;13.10;99.90;;;;;;4999821;28;20042;-44
2023/09/26 02:10:15;;;;;;;14.27;12.95;;;13.10;99.90;;;;;;4981352;28;20505;-46
2023/09/26 02:12:49;;;;;;;11.57;10.40;;;13.00;99.90;;;;;;5000865;28;20509;-46
2023/09/26 02:15:16;;;;;;;11.18;10.07;;;12.90;99.90;;;;;;4983385;28;20060;-44
2023/09/26 02:17:42;;;;;;;11.57;10.43;;;12.80;99.90;;;;;;4983142;28;20135;-45
2023/09/26 02:20:14;;;;;;;12.18;10.98;;;12.80;99.90;;;;;;4999634;28;20524;-44
2023/09/26 02:22:44;;;;;;;14.35;13.05;;;12.70;99.90;;;;;;5000646;28;20644;-45
2023/09/26 02:25:12;;;;;;;12.70;11.50;;;12.70;99.90;;;;;;5000342;28;20517;-45
2023/09/26 02:27:39;;;;;;;16.17;14.73;;;12.60;99.90;;;;;;4982514;28;20424;-46
2023/09/26 02:30:06;;;;;;;14.98;13.60;;;12.70;99.90;;;;;;4999352;28;20049;-45
2023/09/26 02:32:32;;;;;;;16.23;14.63;;;12.70;99.90;;;;;;5000580;28;20111;-44
2023/09/26 02:34:58;;;;;;;18.05;16.33;;;12.60;99.90;;;;;;5000291;28;20480;-45
2023/09/26 02:37:24;;;;;;;18.25;16.55;;;12.70;99.90;;;;;;5000095;28;20160;-44
2023/09/26 02:39:49;;;;;;;18.38;16.55;;;12.70;99.90;;;;;;4981435;28;20155;-46
2023/09/26 02:42:15;;;;;;;17.85;16.35;;;12.70;99.90;;;;;;4973161;28;20502;-44
2023/09/26 02:44:41;;;;;;;19.55;16.38;;;12.60;99.90;;;;;;4963109;28;20064;-43
2023/09/26 02:47:06;;;;;;;19.15;17.20;;;12.60;99.90;;;;;;4982579;28;20466;-44
2023/09/26 02:49:32;;;;;;;18.25;16.48;;;12.70;99.90;;;;;;4982558;28;20049;-44
2023/09/26 02:51:57;;;;;;;19.02;17.23;;;12.70;99.90;;;;;;5000045;28;20064;-43
2023/09/26 02:54:23;;;;;;;21.45;19.20;;;12.70;99.90;;;;;;4982872;28;20041;-43
2023/09/26 02:56:49;;;;;;;20.75;18.73;;;12.70;99.90;;;;;;4982739;28;20050;-45
2023/09/26 02:59:14;;;;;;;20.00;18.00;;;12.70;99.90;;;;;;4981713;28;20476;-45
2023/09/26 03:01:40;;;;;;;18.50;16.80;;;12.70;99.90;;;;;;4995818;28;20050;-48
2023/09/26 03:04:06;;;;;;;18.02;16.30;;;12.70;99.90;;;;;;4997006;28;20038;-44
2023/09/26 03:06:31;;;;;;;14.30;13.00;;;12.60;99.90;;;;;;4981858;28;20091;-44
2023/09/26 03:08:57;;;;;;;13.60;12.40;;;12.60;99.90;;;;;;4999432;28;20045;-44
2023/09/26 03:11:23;;;;;;;16.98;15.32;;;12.60;99.90;;;;;;4982132;28;20053;-46
2023/09/26 03:13:48;;;;;;;18.55;15.35;;;12.50;99.90;;;;;;5000092;28;20046;-46
2023/09/26 03:16:14;;;;;;;18.33;16.60;;;12.50;99.90;;;;;;4982205;28;20469;-48
2023/09/26 03:18:40;;;;;;;18.08;16.45;;;12.50;99.90;;;;;;4982001;28;20485;-46
2023/09/26 03:21:07;;;;;;;17.27;15.75;;;12.50;99.90;;;;;;4965270;28;20103;-47
2023/09/26 03:23:33;;;;;;;17.85;15.55;;;12.50;99.90;;;;;;4981246;28;20493;-47
2023/09/26 03:25:59;;;;;;;18.30;16.60;;;12.50;99.90;;;;;;4965933;28;20073;-44
2023/09/26 03:28:25;;;;;;;20.85;18.23;;;12.60;99.90;;;;;;4981182;28;20082;-45
2023/09/26 03:30:51;;;;;;;22.33;18.52;;;12.60;99.90;;;;;;4998979;28;20572;-47
2023/09/26 03:33:16;;;;;;;19.70;17.80;;;12.60;99.90;;;;;;4999494;28;20041;-46
2023/09/26 03:35:42;;;;;;;19.73;18.13;;;12.60;99.90;;;;;;4999381;28;20163;-44
2023/09/26 03:38:07;;;;;;;23.20;20.85;;;12.70;99.90;;;;;;4999133;28;20131;-45
2023/09/26 03:40:33;;;;;;;20.80;18.80;;;12.60;99.90;;;;;;4999927;28;20480;-45
2023/09/26 03:42:59;;;;;;;22.77;20.58;;;12.70;99.90;;;;;;4969654;28;20552;-46
2023/09/26 03:45:25;;;;;;;19.33;17.52;;;12.70;99.90;;;;;;4999773;28;20138;-44
2023/09/26 03:47:51;;;;;;;19.70;17.90;;;12.60;99.90;;;;;;4981562;28;20417;-47
2023/09/26 03:50:17;;;;;;;19.58;17.70;;;12.70;99.90;;;;;;4999233;28;20042;-45
2023/09/26 03:52:42;;;;;;;17.92;16.27;;;12.70;99.90;;;;;;4981412;28;20133;-43
2023/09/26 03:55:08;;;;;;;19.85;18.00;;;12.70;99.90;;;;;;4999354;28;20041;-46
2023/09/26 03:57:34;;;;;;;19.08;17.25;;;12.70;99.90;;;;;;4999061;28;20507;-47
2023/09/26 04:00:01;;;;;;;17.75;16.05;;;12.70;99.90;;;;;;4980762;28;20111;-43
2023/09/26 04:02:28;;;;;;;18.35;16.70;;;12.60;99.90;;;;;;4974564;28;20052;-47
2023/09/26 04:04:53;;;;;;;19.50;17.55;;;12.60;99.90;;;;;;4998711;28;20377;-43
2023/09/26 04:07:19;;;;;;;17.77;16.05;;;12.60;99.90;;;;;;4964138;28;20034;-44
2023/09/26 04:09:44;;;;;;;19.38;17.58;;;12.60;99.90;;;;;;4980564;28;20081;-45
2023/09/26 04:12:10;;;;;;;18.40;16.65;;;12.60;99.90;;;;;;4964742;28;20418;-43
2023/09/26 04:14:35;;;;;;;19.05;17.30;;;12.50;99.90;;;;;;4982331;28;20128;-44
2023/09/26 04:17:02;;;;;;;18.38;16.48;;;12.50;99.90;;;;;;4981769;28;20587;-43
2023/09/26 04:19:28;;;;;;;20.30;18.40;;;12.50;99.90;;;;;;4998939;28;20050;-44
2023/09/26 04:21:53;;;;;;;19.92;17.85;;;12.50;99.90;;;;;;4980735;28;20050;-43
2023/09/26 04:24:20;;;;;;;19.50;17.60;;;12.50;99.90;;;;;;4999428;28;20046;-43
2023/09/26 04:26:46;;;;;;;18.10;16.58;;;12.60;99.90;;;;;;4999182;28;20132;-43
2023/09/26 04:29:12;;;;;;;18.95;17.17;;;12.60;99.90;;;;;;4999283;28;20046;-44
2023/09/26 04:31:37;;;;;;;19.60;17.55;;;12.60;99.90;;;;;;4980548;28;20557;-43
2023/09/26 04:34:03;;;;;;;21.50;19.63;;;12.60;99.90;;;;;;5000323;28;20030;-44
2023/09/26 04:36:29;;;;;;;20.40;18.33;;;12.60;99.90;;;;;;4970828;28;20050;-43
2023/09/26 04:38:55;;;;;;;20.38;18.42;;;12.60;99.90;;;;;;4984339;28;20056;-42
2023/09/26 04:41:21;;;;;;;21.90;20.00;;;12.50;99.90;;;;;;5001218;28;20053;-43
2023/09/26 04:43:46;;;;;;;19.10;17.40;;;12.50;99.90;;;;;;5003495;28;20527;-43
2023/09/26 04:46:13;;;;;;;20.00;17.90;;;12.50;99.90;;;;;;5003305;28;20555;-44
2023/09/26 04:48:44;;;;;;;19.73;17.70;;;12.50;99.90;;;;;;5002888;28;20052;-44
2023/09/26 04:51:14;;;;;;;19.05;17.33;;;12.50;99.90;;;;;;5002677;28;20045;-46
2023/09/26 04:53:40;;;;;;;18.02;16.33;;;12.50;99.90;;;;;;4984711;28;20042;-43
2023/09/26 04:56:06;;;;;;;20.00;18.08;;;12.50;99.90;;;;;;4984606;28;20520;-44
2023/09/26 04:58:33;;;;;;;19.23;17.40;;;12.50;99.90;;;;;;5002387;28;20050;-43
2023/09/26 05:01:02;;;;;;;19.75;17.77;;;12.50;99.90;;;;;;5002063;28;20419;-45
2023/09/26 05:03:28;;;;;;;19.63;17.90;;;12.50;99.90;;;;;;4995001;28;20354;-43
2023/09/26 05:05:54;;;;;;;21.05;18.98;;;12.50;99.90;;;;;;4981955;28;20508;-45
2023/09/26 05:08:19;;;;;;;20.50;18.10;;;12.40;99.90;;;;;;4983236;28;20038;-43
2023/09/26 05:10:48;;;;;;;19.02;17.23;;;12.50;99.90;;;;;;4983445;28;20089;-44
2023/09/26 05:13:14;;;;;;;18.67;16.77;;;12.50;99.90;;;;;;4984337;28;20060;-44
2023/09/26 05:15:40;;;;;;;19.30;17.48;;;12.40;99.90;;;;;;4984257;28;20073;-44
2023/09/26 05:18:05;;;;;;;18.30;16.55;;;12.40;99.90;;;;;;5001605;28;20041;-44
2023/09/26 05:20:31;;;;;;;18.90;16.20;;;12.30;99.90;;;;;;5001695;28;20475;-45
2023/09/26 05:22:58;;;;;;;20.70;18.70;;;12.30;99.90;;;;;;5001788;28;20052;-43
2023/09/26 05:25:24;;;;;;;23.90;21.40;;;12.30;99.90;;;;;;5001711;28;20050;-43
2023/09/26 05:27:49;;;;;;;19.88;17.98;;;12.40;99.90;;;;;;5001387;28;20049;-43
2023/09/26 05:30:15;;;;;;;21.70;19.70;;;12.40;99.90;;;;;;5001128;28;20420;-43
2023/09/26 05:32:41;;;;;;;20.92;18.73;;;12.40;99.90;;;;;;5001791;28;20107;-43
2023/09/26 05:35:08;;;;;;;20.65;18.42;;;12.40;99.90;;;;;;4983558;28;20132;-43
2023/09/26 05:37:35;;;;;;;21.17;19.13;;;12.40;99.90;;;;;;5001655;28;20042;-43
2023/09/26 05:40:06;;;;;;;21.48;19.38;;;12.40;99.90;;;;;;4982779;28;20100;-43
2023/09/26 05:42:32;;;;;;;21.15;18.73;;;12.40;99.90;;;;;;5001115;28;20092;-42
2023/09/26 05:44:58;;;;;;;20.55;18.55;;;12.40;99.90;;;;;;4983927;28;20049;-44
2023/09/26 05:47:24;;;;;;;21.30;19.10;;;12.50;99.90;;;;;;4983589;28;20038;-44
2023/09/26 05:49:50;;;;;;;22.05;19.83;;;12.50;99.90;;;;;;4982843;28;20045;-44
2023/09/26 05:52:17;;;;;;;21.88;19.67;;;12.50;99.90;;;;;;4983768;28;20049;-44
2023/09/26 05:54:43;;;;;;;23.45;21.15;;;12.60;99.90;;;;;;5000967;28;20514;-44
2023/09/26 05:57:08;;;;;;;22.05;20.05;;;12.60;99.90;;;;;;4983083;28;20042;-45
2023/09/26 05:59:34;;;;;;;23.60;21.20;;;12.70;99.90;;;;;;4981868;28;20053;-44
2023/09/26 06:01:59;;;;;;;23.83;21.60;;;12.70;99.90;;;;;;4996036;28;20412;-43
2023/09/26 06:04:25;;;;;;;23.20;20.98;;;12.80;99.90;;;;;;4982080;28;20482;-44
2023/09/26 06:06:51;;;;;;;21.67;19.75;;;12.90;99.90;;;;;;4982138;28;20042;-44
2023/09/26 06:09:16;;;;;;;23.83;21.45;;;13.00;99.90;;;;;;4999318;28;20042;-43
2023/09/26 06:11:42;;;;;;;23.08;20.77;;;13.10;99.90;;;;;;4998984;28;20150;-43
2023/09/26 06:14:07;;;;;;;23.50;21.30;;;13.30;99.90;;;;;;4998349;28;20063;-44
2023/09/26 06:16:34;;;;;;;23.38;21.35;;;13.70;99.90;;;;;;5000476;28;20485;-45
2023/09/26 06:18:59;;;;;;;22.67;20.50;;;14.20;99.90;;;;;;4999722;28;20522;-44
2023/09/26 06:21:25;;;;;;;22.23;20.08;;;14.40;99.90;;;;;;5000040;28;20046;-44
2023/09/26 06:23:51;;;;;;;23.25;20.70;;;14.50;99.90;;;;;;4966227;28;20052;-45
2023/09/26 06:26:16;;;;;;;22.02;19.85;;;14.50;99.90;;;;;;4982291;28;20551;-43
2023/09/26 06:28:42;;;;;;;21.10;19.15;;;14.50;99.90;;;;;;4981626;28;20105;-43
2023/09/26 06:31:09;;;;;;;21.42;19.52;;;14.60;99.90;;;;;;4982034;28;20440;-45
2023/09/26 06:33:35;;;;;;;22.98;20.63;;;14.80;99.90;;;;;;4982607;28;20042;-45
2023/09/26 06:36:01;;;;;;;22.27;20.10;;;14.90;99.90;;;;;;5000539;28;20046;-43
2023/09/26 06:38:28;;;;;;;21.23;19.20;;;14.90;99.90;;;;;;4980703;28;20054;-43
2023/09/26 06:41:01;;;;;;;21.48;19.38;;;15.10;99.90;;;;;;4997964;28;20081;-45
2023/09/26 06:43:27;;;;;;;;;;;15.20;99.90;;;;;;4988060;28;20038;-44
2023/09/26 06:45:53;;;;;;;20.67;18.52;;;15.20;99.90;;;;;;4999878;28;19921;-44
2023/09/26 06:48:18;;;;;;;20.95;18.83;;;15.20;99.90;;;;;;4965201;28;20060;-44
2023/09/26 06:50:44;;;;;;;19.58;17.88;;;15.20;99.90;;;;;;4980577;28;20045;-45
2023/09/26 06:53:10;;;;;;;20.98;19.13;;;15.30;99.90;;;;;;4981436;28;20056;-44
2023/09/26 06:55:39;;;;;;;21.55;19.63;;;15.50;99.90;;;;;;4997799;28;20563;-44
2023/09/26 06:58:05;;;;;;;21.02;18.83;;;15.60;99.90;;;;;;4963258;28;20545;-43
2023/09/26 07:00:31;;;;;;;20.73;18.88;;;15.80;99.90;;;;;;4997380;28;20049;-44
2023/09/26 07:02:57;;;;;;;20.83;18.80;;;15.80;99.90;;;;;;4990450;28;20053;-44
2023/09/26 07:05:26;;;;;;;20.60;18.45;;;15.80;99.90;;;;;;4997513;28;20069;-43
2023/09/26 07:07:52;;;;;;;20.95;18.95;;;15.80;99.90;;;;;;4997470;28;20581;-43
2023/09/26 07:10:17;;;;;;;22.50;20.20;;;15.70;99.90;;;;;;4998378;28;20053;-44
2023/09/26 07:12:44;;;;;;;20.15;18.45;;;15.70;99.90;;;;;;4999225;28;20604;-43
2023/09/26 07:15:13;;;;;;;20.42;18.02;;;15.70;99.90;;;;;;4998871;28;20365;-45
2023/09/26 07:17:39;;;;;;;20.70;18.75;;;15.60;99.90;;;;;;4998850;28;20053;-46
2023/09/26 07:20:16;;;;;;;22.85;20.75;;;15.60;99.90;;;;;;4980927;28;20105;-46
2023/09/26 07:22:42;;;;;;;21.95;19.58;;;15.60;99.90;;;;;;4998747;28;20400;-44
2023/09/26 07:25:09;;;;;;;23.08;20.65;;;15.50;99.90;;;;;;4998898;28;20050;-43
2023/09/26 07:27:35;;;;;;;21.38;19.35;;;15.50;99.90;;;;;;4998763;28;20045;-44
2023/09/26 07:30:01;;;;;;;22.70;20.33;;;15.50;99.90;;;;;;4980511;28;20416;-44
2023/09/26 07:32:27;;;;;;;21.48;19.52;;;15.50;99.90;;;;;;4998598;28;20096;-45
2023/09/26 07:34:53;;;;;;;21.40;19.27;;;15.50;99.90;;;;;;4998304;28;20404;-44
2023/09/26 07:37:18;;;;;;;21.58;19.15;;;15.60;99.90;;;;;;4964358;28;20572;-45
2023/09/26 07:39:48;;;;;;;22.13;19.98;;;15.70;99.90;;;;;;4997695;28;20515;-44
2023/09/26 07:42:14;;;;;;;20.80;18.10;;;15.70;99.90;;;;;;4979762;28;20050;-44
2023/09/26 07:44:40;;;;;;;22.50;20.35;;;15.80;99.90;;;;;;4998291;28;20088;-44
2023/09/26 07:47:05;;;;;;;22.45;20.42;;;15.70;99.90;;;;;;4981024;28;20483;-44
2023/09/26 07:49:31;;;;;;;21.85;19.75;;;15.70;99.90;;;;;;4980248;28;20546;-43
2023/09/26 07:51:57;;;;;;;21.23;19.20;;;15.80;99.90;;;;;;4998681;28;20050;-48
2023/09/26 07:54:22;;;;;;;20.63;18.58;;;15.80;99.90;;;;;;4998509;28;20771;-45
2023/09/26 07:56:48;;;;;;;21.65;19.45;;;15.90;99.90;;;;;;4964956;28;20699;-46
2023/09/26 07:59:14;;;;;;;19.77;17.90;;;15.90;99.90;;;;;;4997748;28;20061;-45
2023/09/26 08:01:40;;;;;;;20.40;18.42;;;16.10;99.90;;;;;;4995108;28;20081;-45
2023/09/26 08:04:07;;;;;;;21.35;18.70;;;16.10;99.90;;;;;;4980948;28;20085;-46
2023/09/26 08:06:33;;;;;;;20.13;18.13;;;16.20;99.90;;;;;;4981636;28;20721;-45
2023/09/26 08:08:58;;;;;;;21.52;19.52;;;16.30;99.90;;;;;;4981925;28;20040;-44
2023/09/26 08:11:27;;;;;;;21.08;19.10;;;16.30;99.90;;;;;;5002295;28;20049;-47
2023/09/26 08:13:54;;;;;;;20.88;18.90;;;16.20;99.90;;;;;;4984266;28;20564;-45
2023/09/26 08:16:20;;;;;;;20.23;18.40;;;16.20;99.90;;;;;;4984848;28;20152;-44
2023/09/26 08:18:46;;;;;;;20.92;18.92;;;16.10;99.90;;;;;;4968270;28;20053;-46
2023/09/26 08:21:11;;;;;;;21.88;19.77;;;16.10;99.90;;;;;;4984028;28;20421;-44
2023/09/26 08:23:37;;;;;;;21.85;19.85;;;16.00;99.90;;;;;;4984322;28;20397;-44
2023/09/26 08:26:06;;;;;;;22.63;20.42;;;16.00;99.90;;;;;;5002392;28;20505;-46
2023/09/26 08:28:32;;;;;;;20.92;18.88;;;16.00;99.90;;;;;;4983998;28;20095;-44
2023/09/26 08:31:10;;;;;;;21.55;19.35;;;16.00;99.90;;;;;;5001892;28;20054;-44
2023/09/26 08:33:37;;;;;;;20.65;18.65;;;16.10;99.90;;;;;;5002421;28;20050;-46
2023/09/26 08:36:12;;;;;;;21.13;19.02;;;16.20;99.90;;;;;;4969223;28;20556;-46
2023/09/26 08:38:38;;;;;;;20.38;18.42;;;16.30;99.90;;;;;;5002606;28;20041;-44
2023/09/26 08:41:06;;;;;;;20.27;18.38;;;16.40;99.90;;;;;;4983972;28;20053;-45
2023/09/26 08:43:33;;;;;;;21.05;18.30;;;16.50;99.90;;;;;;4989716;28;20516;-46
2023/09/26 08:45:59;;;;;;;18.70;17.00;;;16.60;99.90;;;;;;5003224;28;20064;-47
2023/09/26 08:48:25;;;;;;;18.35;16.65;;;16.70;99.90;;;;;;4985261;28;20343;-47
2023/09/26 08:50:51;;;;;;;20.25;17.73;;;16.80;99.90;;;;;;5002622;28;20406;-51
2023/09/26 08:53:17;;;;;;;17.75;16.15;;;16.80;99.90;;;;;;5002973;28;20042;-49
2023/09/26 08:55:43;;;;;;;18.20;16.15;;;16.80;99.90;;;;;;5002686;28;20046;-44
2023/09/26 08:58:09;;;;;;;18.83;16.95;;;17.00;99.90;;;;;;4999244;28;20050;-46
2023/09/26 09:00:35;;;;;;;17.15;15.38;;;17.10;99.90;;;;;;5001589;28;20592;-45
2023/09/26 09:03:00;;;;;;;16.90;15.50;;;17.30;99.90;;;;;;4977717;28;20046;-45
2023/09/26 09:05:26;;;;;;;18.27;16.40;;;17.40;99.90;;;;;;5002609;28;20091;-46
2023/09/26 09:07:52;;;;;;;19.50;17.60;;;17.60;99.90;;;;;;5002003;28;20552;-45
2023/09/26 09:10:17;;;;;;;17.80;16.00;;;17.80;99.90;;;;;;5000058;28;20054;-46
2023/09/26 09:12:47;;;;;;;17.48;15.68;;;17.90;99.90;;;;;;5001113;28;20057;-44
2023/09/26 09:15:16;;;;;;;17.98;16.05;;;18.00;99.90;;;;;;5001479;28;20077;-45
2023/09/26 09:17:50;;;;;;;16.92;15.05;;;18.10;99.90;;;;;;4983886;28;20085;-44
2023/09/26 09:20:33;;;;;;;16.25;14.65;;;18.20;99.90;;;;;;4982715;28;20050;-45
2023/09/26 09:23:03;;;;;;;16.90;15.00;;;18.20;99.90;;;;;;5001686;28;20052;-45
2023/09/26 09:25:36;;;;;;;19.45;14.70;;;18.20;99.90;;;;;;5001509;28;20048;-48
2023/09/26 09:28:07;;;;;;;16.52;14.65;;;18.30;99.90;;;;;;4999466;28;20117;-46
2023/09/26 09:30:43;;;;;;;16.70;15.07;;;18.30;99.90;;;;;;5000439;28;20042;-46
2023/09/26 09:33:11;;;;;;;16.55;14.82;;;18.40;99.90;;;;;;5001028;28;20337;-45
2023/09/26 09:35:37;;;;;;;16.95;15.20;;;18.50;99.90;;;;;;5001115;28;20107;-45
2023/09/26 09:38:08;;;;;;;16.20;14.60;;;18.80;99.90;;;;;;5000213;28;20228;-46
2023/09/26 09:40:34;;;;;;;20.00;13.63;;;18.90;99.90;;;;;;5000858;28;20171;-45
2023/09/26 09:43:00;;;;;;;15.98;14.25;;;18.90;99.90;;;;;;4979249;28;20061;-45
2023/09/26 09:45:29;;;;;;;14.32;13.02;;;19.00;99.90;;;;;;5000929;28;20038;-45
2023/09/26 09:47:57;;;;;;;14.27;12.82;;;19.10;99.90;;;;;;5000440;28;20046;-47
2023/09/26 09:50:25;;;;;;;15.35;12.80;;;19.20;99.90;;;;;;5000474;28;20053;-45
2023/09/26 09:52:53;;;;;;;15.15;13.15;;;19.30;99.90;;;;;;5000838;28;20077;-48
2023/09/26 09:55:29;;;;;;;15.60;13.88;;;19.50;99.90;;;;;;5001062;28;20144;-46
2023/09/26 09:57:56;;;;;;;12.85;11.63;;;19.70;99.90;;;;;;4982856;28;20054;-46
2023/09/26 10:00:25;;;;;;;14.40;12.05;;;20.00;99.90;;;;;;4982678;28;20162;-47
2023/09/26 10:02:52;;;;;;;15.60;12.82;;;20.10;99.90;;;;;;4973841;28;20328;-46
2023/09/26 10:05:19;;;;;;;16.08;13.07;;;20.10;99.90;;;;;;4975111;28;20042;-44
2023/09/26 10:07:46;;;;;;;13.63;12.23;;;20.20;99.90;;;;;;4999519;28;20635;-48
2023/09/26 10:10:13;;;;;;;13.65;11.63;;;20.30;99.90;;;;;;4999480;28;20054;-45
2023/09/26 10:12:40;;;;;;;14.30;11.60;;;20.30;99.90;;;;;;4982164;28;20061;-45
2023/09/26 10:15:11;;;;;;;14.75;11.75;;;20.30;99.90;;;;;;4962326;28;20085;-44
2023/09/26 10:17:48;;;;;;;13.73;12.07;;;20.30;99.90;;;;;;5000260;28;20088;-44
2023/09/26 10:20:14;;;;;;;14.73;11.35;;;20.30;99.90;;;;;;4998709;28;20128;-44
2023/09/26 10:22:42;;;;;;;12.02;10.82;;;20.20;99.90;;;;;;4980574;28;20553;-44
2023/09/26 10:25:08;;;;;;;13.80;12.40;;;20.20;99.90;;;;;;4980781;28;20042;-45
2023/09/26 10:27:34;;;;;;;12.52;11.00;;;20.20;99.90;;;;;;4980109;28;20038;-46
2023/09/26 10:30:03;;;;;;;15.07;11.65;;;20.20;99.90;;;;;;4980462;28;20049;-47
2023/09/26 10:32:34;;;;;;;13.13;11.32;;;20.20;99.90;;;;;;4980106;28;20111;-44
2023/09/26 10:35:22;;;;;;;12.90;11.38;;;20.20;99.90;;;;;;4998955;28;20556;-46
2023/09/26 10:38:06;;;;;;;12.57;11.10;;;20.30;99.90;;;;;;4993187;28;20077;-46
2023/09/26 10:40:32;;;;;;;15.27;11.55;;;20.30;99.90;;;;;;4999360;28;20390;-45
2023/09/26 10:42:59;;;;;;;11.23;10.13;;;20.40;99.90;;;;;;4987885;28;20096;-46
2023/09/26 10:45:25;;;;;;;12.38;11.05;;;20.40;99.90;;;;;;5000097;28;20497;-46
2023/09/26 10:47:50;;;;;;;13.65;11.25;;;20.40;99.90;;;;;;4965573;28;20146;-46
2023/09/26 10:50:16;;;;;;;11.85;10.68;;;20.40;99.90;;;;;;4965887;28;20038;-44
2023/09/26 10:52:46;;;;;;;12.40;11.15;;;20.40;99.90;;;;;;4966242;28;20371;-44
2023/09/26 10:55:16;;;;;;;13.00;11.68;;;20.40;99.90;;;;;;4981912;28;20505;-44
2023/09/26 10:57:44;;;;;;;14.52;12.23;;;20.50;99.90;;;;;;4999613;28;20073;-44
2023/09/26 11:00:11;;;;;;;12.20;11.00;;;20.50;99.90;;;;;;4999189;28;20038;-45
2023/09/26 11:02:37;;;;;;;15.13;11.27;;;20.40;99.90;;;;;;4992831;28;20092;-45
2023/09/26 11:05:13;;;;;;;11.85;9.95;;;20.40;99.90;;;;;;4993061;28;20505;-45
2023/09/26 11:07:44;;;;;;;14.32;10.75;;;20.50;99.90;;;;;;5000174;28;20341;-43
2023/09/26 11:10:14;;;;;;;13.95;10.25;;;20.50;99.90;;;;;;4981472;28;20354;-46
2023/09/26 11:12:41;;;;;;;12.40;9.80;;;20.50;99.90;;;;;;4993995;28;20286;-45
2023/09/26 11:15:07;;;;;;;11.90;9.88;;;20.50;99.90;;;;;;4999860;28;20053;-45
2023/09/26 11:17:35;;;;;;;10.98;9.57;;;20.40;99.90;;;;;;4981060;28;20069;-45
2023/09/26 11:20:00;;;;;;;11.35;10.15;;;20.40;99.90;;;;;;4999571;28;20038;-46
2023/09/26 11:22:26;;;;;;;13.73;10.27;;;20.50;99.90;;;;;;4999116;28;20488;-46
2023/09/26 11:25:08;;;;;;;11.35;10.10;;;20.50;99.90;;;;;;4999642;28;20230;-45
2023/09/26 11:27:42;;;;;;;13.18;10.65;;;20.50;99.90;;;;;;4981099;28;20096;-46
2023/09/26 11:30:12;;;;;;;10.95;9.85;;;20.40;99.90;;;;;;4981391;28;20045;-46
2023/09/26 11:32:39;;;;;;;12.10;10.27;;;20.50;99.90;;;;;;4999064;28;20934;-46
2023/09/26 11:35:06;;;;;;;12.48;10.13;;;20.40;99.90;;;;;;4982267;28;20045;-47
2023/09/26 11:37:32;;;;;;;12.20;10.25;;;20.40;99.90;;;;;;4981372;28;20057;-46
2023/09/26 11:39:58;;;;;;;11.05;9.55;;;20.50;99.90;;;;;;4986293;28;20077;-45
2023/09/26 11:42:24;;;;;;;12.80;10.00;;;20.60;99.90;;;;;;4998144;28;20575;-45
2023/09/26 11:44:56;;;;;;;12.82;10.10;;;20.70;99.90;;;;;;5002545;28;20042;-45
2023/09/26 11:47:24;;;;;;;12.00;10.23;;;20.70;99.90;;;;;;5003034;28;20056;-46
2023/09/26 11:49:51;;;;;;;12.90;10.82;;;20.80;99.90;;;;;;5002963;28;20046;-46
2023/09/26 11:52:17;;;;;;;14.45;10.13;;;20.90;99.90;;;;;;4969192;28;20647;-45
2023/09/26 11:54:44;;;;;;;12.45;10.50;;;21.00;99.90;;;;;;4985940;28;20136;-45
2023/09/26 11:57:12;;;;;;;12.65;11.02;;;21.00;99.90;;;;;;5002881;28;20042;-45
2023/09/26 11:59:39;;;;;;;13.15;11.38;;;21.00;99.90;;;;;;4985219;28;20784;-46
2023/09/26 12:02:04;;;;;;;12.90;11.48;;;21.00;99.90;;;;;;4996610;28;20050;-44
2023/09/26 12:04:32;;;;;;;12.18;10.90;;;20.90;99.90;;;;;;4985237;28;20046;-46
2023/09/26 12:06:58;;;;;;;13.65;11.15;;;21.00;99.90;;;;;;5002479;28;20519;-47
2023/09/26 12:09:24;;;;;;;11.98;10.77;;;21.00;99.90;;;;;;4984735;28;20093;-48
2023/09/26 12:11:55;;;;;;;13.48;10.80;;;21.10;99.90;;;;;;4962102;28;20655;-45
2023/09/26 12:14:21;;;;;;;16.67;12.27;;;21.20;99.90;;;;;;4985399;28;20046;-45
2023/09/26 12:16:51;;;;;;;15.55;11.15;;;21.20;99.90;;;;;;5002484;28;20250;-47
2023/09/26 12:19:21;;;;;;;11.43;10.23;;;21.20;99.90;;;;;;4984283;28;20050;-46
2023/09/26 12:21:47;;;;;;;11.38;9.70;;;21.20;99.90;;;;;;4985290;28;20104;-45
2023/09/26 12:24:14;;;;;;;12.07;10.00;;;21.30;99.90;;;;;;5002712;28;20052;-45
2023/09/26 12:26:45;;;;;;;11.68;9.77;;;21.40;99.90;;;;;;5002352;28;20458;-45